sensor_id;sensor_type;location;lat;lon;timestamp;pressure;altitude;pressure_sealevel;temperature;humidity
7052;BME280;3567;52.444;13.556;2023-04-28T00:00:27;101624.22;;;2.13;99.37
7052;BME280;3567;52.444;13.556;2023-04-28T00:02:53;101628.84;;;2.10;99.28
7052;BME280;3567;52.444;13.556;2023-04-28T00:05:18;101623.53;;;2.10;99.43
7052;BME280;3567;52.444;13.556;2023-04-28T00:07:44;101623.53;;;2.10;99.54
7052;BME280;3567;52.444;13.556;2023-04-28T00:10:10;101630.66;;;2.10;99.32
7052;BME280;3567;52.444;13.556;2023-04-28T00:12:36;101620.53;;;2.05;99.63
7052;BME280;3567;52.444;13.556;2023-04-28T00:15:01;101617.22;;;2.03;99.79
7052;BME280;3567;52.444;13.556;2023-04-28T00:17:27;101618.19;;;2.02;100.00
7052;BME280;3567;52.444;13.556;2023-04-28T00:19:53;101623.78;;;1.99;100.00
7052;BME280;3567;52.444;13.556;2023-04-28T00:22:18;101616.84;;;1.98;100.00
7052;BME280;3567;52.444;13.556;2023-04-28T00:24:43;101617.94;;;1.96;99.67
7052;BME280;3567;52.444;13.556;2023-04-28T00:27:09;101617.13;;;1.95;100.00
7052;BME280;3567;52.444;13.556;2023-04-28T00:29:34;101611.16;;;1.93;100.00
7052;BME280;3567;52.444;13.556;2023-04-28T00:32:01;101606.50;;;1.87;100.00
7052;BME280;3567;52.444;13.556;2023-04-28T00:34:27;101608.31;;;1.87;100.00
7052;BME280;3567;52.444;13.556;2023-04-28T00:36:54;101608.44;;;1.85;100.00
7052;BME280;3567;52.444;13.556;2023-04-28T00:39:20;101615.69;;;1.83;100.00
7052;BME280;3567;52.444;13.556;2023-04-28T00:41:47;101606.25;;;1.80;100.00
7052;BME280;3567;52.444;13.556;2023-04-28T00:44:12;101602.78;;;1.80;100.00
7052;BME280;3567;52.444;13.556;2023-04-28T00:46:37;101602.78;;;1.80;100.00
7052;BME280;3567;52.444;13.556;2023-04-28T00:49:03;101601.28;;;1.77;100.00
7052;BME280;3567;52.444;13.556;2023-04-28T00:51:29;101597.09;;;1.75;100.00
7052;BME280;3567;52.444;13.556;2023-04-28T00:53:55;101595.59;;;1.72;100.00
7052;BME280;3567;52.444;13.556;2023-04-28T00:56:21;101600.06;;;1.72;100.00
7052;BME280;3567;52.444;13.556;2023-04-28T00:58:46;101591.97;;;1.73;100.00
7052;BME280;3567;52.444;13.556;2023-04-28T01:01:12;101592.13;;;1.72;100.00
7052;BME280;3567;52.444;13.556;2023-04-28T01:03:38;101586.03;;;1.71;100.00
7052;BME280;3567;52.444;13.556;2023-04-28T01:06:05;101591.16;;;1.73;100.00
7052;BME280;3567;52.444;13.556;2023-04-28T01:08:31;101588.34;;;1.74;100.00
7052;BME280;3567;52.444;13.556;2023-04-28T01:10:57;101591.97;;;1.73;100.00
7052;BME280;3567;52.444;13.556;2023-04-28T01:13:23;101586.69;;;1.73;100.00
7052;BME280;3567;52.444;13.556;2023-04-28T01:15:49;101584.06;;;1.73;100.00
7052;BME280;3567;52.444;13.556;2023-04-28T01:18:15;101576.28;;;1.72;100.00
7052;BME280;3567;52.444;13.556;2023-04-28T01:20:40;101577.28;;;1.71;100.00
7052;BME280;3567;52.444;13.556;2023-04-28T01:23:14;101574.75;;;1.69;100.00
7052;BME280;3567;52.444;13.556;2023-04-28T01:25:40;101582.03;;;1.67;100.00
7052;BME280;3567;52.444;13.556;2023-04-28T01:28:06;101580.38;;;1.66;100.00
7052;BME280;3567;52.444;13.556;2023-04-28T01:30:31;101572.56;;;1.65;100.00
7052;BME280;3567;52.444;13.556;2023-04-28T01:32:57;101573.44;;;1.65;100.00
7052;BME280;3567;52.444;13.556;2023-04-28T01:35:23;101570.91;;;1.64;100.00
7052;BME280;3567;52.444;13.556;2023-04-28T01:37:48;101565.94;;;1.61;100.00
7052;BME280;3567;52.444;13.556;2023-04-28T01:40:14;101567.88;;;1.58;100.00
7052;BME280;3567;52.444;13.556;2023-04-28T01:42:39;101564.25;;;1.60;100.00
7052;BME280;3567;52.444;13.556;2023-04-28T01:45:05;101566.06;;;1.59;100.00
7052;BME280;3567;52.444;13.556;2023-04-28T01:47:30;101560.13;;;1.57;100.00
7052;BME280;3567;52.444;13.556;2023-04-28T01:49:56;101567.06;;;1.58;100.00
7052;BME280;3567;52.444;13.556;2023-04-28T01:52:21;101566.22;;;1.57;100.00
7052;BME280;3567;52.444;13.556;2023-04-28T01:54:48;101562.94;;;1.55;100.00
7052;BME280;3567;52.444;13.556;2023-04-28T01:57:14;101555.13;;;1.54;100.00
7052;BME280;3567;52.444;13.556;2023-04-28T01:59:39;101559.59;;;1.53;100.00
7052;BME280;3567;52.444;13.556;2023-04-28T02:02:05;101554.63;;;1.50;100.00
7052;BME280;3567;52.444;13.556;2023-04-28T02:04:30;101553.25;;;1.46;100.00
7052;BME280;3567;52.444;13.556;2023-04-28T02:06:56;101555.22;;;1.44;100.00
7052;BME280;3567;52.444;13.556;2023-04-28T02:09:21;101552.41;;;1.46;100.00
7052;BME280;3567;52.444;13.556;2023-04-28T02:11:46;101558.53;;;1.46;100.00
7052;BME280;3567;52.444;13.556;2023-04-28T02:14:12;101562.66;;;1.49;100.00
7052;BME280;3567;52.444;13.556;2023-04-28T02:16:37;101553.91;;;1.48;100.00
7052;BME280;3567;52.444;13.556;2023-04-28T02:19:03;101556.56;;;1.48;100.00
7052;BME280;3567;52.444;13.556;2023-04-28T02:21:28;101558.91;;;1.51;100.00
7052;BME280;3567;52.444;13.556;2023-04-28T02:23:53;101560.56;;;1.52;100.00
7052;BME280;3567;52.444;13.556;2023-04-28T02:26:19;101550.69;;;1.54;100.00
7052;BME280;3567;52.444;13.556;2023-04-28T02:28:44;101550.69;;;1.54;100.00
7052;BME280;3567;52.444;13.556;2023-04-28T02:31:10;101550.69;;;1.54;100.00
7052;BME280;3567;52.444;13.556;2023-04-28T02:33:36;101549.03;;;1.53;100.00
7052;BME280;3567;52.444;13.556;2023-04-28T02:36:03;101545.41;;;1.54;100.00
7052;BME280;3567;52.444;13.556;2023-04-28T02:38:28;101545.41;;;1.54;100.00
7052;BME280;3567;52.444;13.556;2023-04-28T02:41:04;101535.53;;;1.56;100.00
7052;BME280;3567;52.444;13.556;2023-04-28T02:43:34;101530.91;;;1.58;100.00
7052;BME280;3567;52.444;13.556;2023-04-28T02:46:01;101534.53;;;1.57;100.00
7052;BME280;3567;52.444;13.556;2023-04-28T02:48:27;101535.38;;;1.58;100.00
7052;BME280;3567;52.444;13.556;2023-04-28T02:50:52;101528.97;;;1.61;100.00
7052;BME280;3567;52.444;13.556;2023-04-28T02:53:18;101528.66;;;1.64;100.00
7052;BME280;3567;52.444;13.556;2023-04-28T02:55:44;101528.38;;;1.67;100.00
7052;BME280;3567;52.444;13.556;2023-04-28T02:58:09;101528.22;;;1.68;100.00
7052;BME280;3567;52.444;13.556;2023-04-28T03:00:35;101520.28;;;1.68;100.00
7052;BME280;3567;52.444;13.556;2023-04-28T03:03:00;101528.06;;;1.70;100.00
7052;BME280;3567;52.444;13.556;2023-04-28T03:05:26;101526.94;;;1.72;100.00
7052;BME280;3567;52.444;13.556;2023-04-28T03:07:52;101520.81;;;1.72;100.00
7052;BME280;3567;52.444;13.556;2023-04-28T03:10:18;101515.38;;;1.73;100.00
7052;BME280;3567;52.444;13.556;2023-04-28T03:12:43;101522.31;;;1.74;100.00
7052;BME280;3567;52.444;13.556;2023-04-28T03:15:09;101525.50;;;1.78;100.00
7052;BME280;3567;52.444;13.556;2023-04-28T03:17:34;101520.22;;;1.78;100.00
7052;BME280;3567;52.444;13.556;2023-04-28T03:20:03;101519.91;;;1.81;100.00
7052;BME280;3567;52.444;13.556;2023-04-28T03:22:28;101515.31;;;1.83;100.00
7052;BME280;3567;52.444;13.556;2023-04-28T03:24:54;101519.31;;;1.87;100.00
7052;BME280;3567;52.444;13.556;2023-04-28T03:27:19;101514.53;;;1.91;100.00
7052;BME280;3567;52.444;13.556;2023-04-28T03:29:45;101514.41;;;1.92;100.00
7052;BME280;3567;52.444;13.556;2023-04-28T03:32:10;101514.25;;;1.94;100.00
7052;BME280;3567;52.444;13.556;2023-04-28T03:34:36;101507.81;;;1.96;100.00
7052;BME280;3567;52.444;13.556;2023-04-28T03:37:01;101507.50;;;1.99;100.00
7052;BME280;3567;52.444;13.556;2023-04-28T03:39:27;101507.50;;;1.99;100.00
7052;BME280;3567;52.444;13.556;2023-04-28T03:41:52;101511.50;;;2.03;100.00
7052;BME280;3567;52.444;13.556;2023-04-28T03:44:17;101511.34;;;2.05;100.00
7052;BME280;3567;52.444;13.556;2023-04-28T03:46:43;101506.28;;;2.12;100.00
7052;BME280;3567;52.444;13.556;2023-04-28T03:49:08;101501.81;;;2.12;100.00
7052;BME280;3567;52.444;13.556;2023-04-28T03:51:34;101504.00;;;2.17;100.00
7052;BME280;3567;52.444;13.556;2023-04-28T03:53:59;101500.22;;;2.19;100.00
7052;BME280;3567;52.444;13.556;2023-04-28T03:56:25;101503.38;;;2.23;100.00
7052;BME280;3567;52.444;13.556;2023-04-28T03:58:50;101498.44;;;2.28;100.00
7052;BME280;3567;52.444;13.556;2023-04-28T04:01:16;101495.50;;;2.31;100.00
7052;BME280;3567;52.444;13.556;2023-04-28T04:03:41;101501.31;;;2.34;100.00
7052;BME280;3567;52.444;13.556;2023-04-28T04:06:07;101491.56;;;2.35;100.00
7052;BME280;3567;52.444;13.556;2023-04-28T04:08:32;101495.41;;;2.41;100.00
7052;BME280;3567;52.444;13.556;2023-04-28T04:10:58;101493.25;;;2.44;100.00
7052;BME280;3567;52.444;13.556;2023-04-28T04:13:23;101494.44;;;2.50;100.00
7052;BME280;3567;52.444;13.556;2023-04-28T04:15:49;101487.69;;;2.55;100.00
7052;BME280;3567;52.444;13.556;2023-04-28T04:18:16;101476.66;;;2.60;100.00
7052;BME280;3567;52.444;13.556;2023-04-28T04:20:41;101474.53;;;2.63;100.00
7052;BME280;3567;52.444;13.556;2023-04-28T04:23:07;101481.00;;;2.69;100.00
7052;BME280;3567;52.444;13.556;2023-04-28T04:25:32;101484.00;;;2.74;100.00
7052;BME280;3567;52.444;13.556;2023-04-28T04:27:58;101480.53;;;2.82;100.00
7052;BME280;3567;52.444;13.556;2023-04-28T04:30:23;101477.28;;;2.88;100.00
7052;BME280;3567;52.444;13.556;2023-04-28T04:32:49;101482.41;;;2.98;100.00
7052;BME280;3567;52.444;13.556;2023-04-28T04:35:14;101478.97;;;3.05;100.00
7052;BME280;3567;52.444;13.556;2023-04-28T04:37:40;101482.47;;;3.14;100.00
7052;BME280;3567;52.444;13.556;2023-04-28T04:40:06;101470.91;;;3.23;100.00
7052;BME280;3567;52.444;13.556;2023-04-28T04:42:31;101470.78;;;3.33;100.00
7052;BME280;3567;52.444;13.556;2023-04-28T04:44:57;101470.63;;;3.42;100.00
7052;BME280;3567;52.444;13.556;2023-04-28T04:47:22;101469.47;;;3.53;100.00
7052;BME280;3567;52.444;13.556;2023-04-28T04:49:48;101467.16;;;3.66;100.00
7052;BME280;3567;52.444;13.556;2023-04-28T04:52:14;101459.19;;;3.83;100.00
7052;BME280;3567;52.444;13.556;2023-04-28T04:54:39;101458.72;;;3.96;100.00
7052;BME280;3567;52.444;13.556;2023-04-28T04:57:05;101465.13;;;4.09;100.00
7052;BME280;3567;52.444;13.556;2023-04-28T04:59:31;101470.09;;;4.29;99.95
7052;BME280;3567;52.444;13.556;2023-04-28T05:01:56;101460.44;;;4.44;98.49
7052;BME280;3567;52.444;13.556;2023-04-28T05:04:22;101465.69;;;4.60;97.15
7052;BME280;3567;52.444;13.556;2023-04-28T05:06:47;101462.66;;;4.71;97.23
7052;BME280;3567;52.444;13.556;2023-04-28T05:09:13;101456.44;;;4.87;96.44
7052;BME280;3567;52.444;13.556;2023-04-28T05:11:38;101453.22;;;5.00;93.91
7052;BME280;3567;52.444;13.556;2023-04-28T05:14:03;101452.66;;;5.13;94.15
7052;BME280;3567;52.444;13.556;2023-04-28T05:16:28;101453.91;;;5.25;92.10
7052;BME280;3567;52.444;13.556;2023-04-28T05:18:54;101448.38;;;5.35;91.80
7052;BME280;3567;52.444;13.556;2023-04-28T05:21:20;101452.25;;;5.47;91.00
7052;BME280;3567;52.444;13.556;2023-04-28T05:23:45;101444.88;;;5.57;89.44
7052;BME280;3567;52.444;13.556;2023-04-28T05:26:11;101454.44;;;5.66;88.71
7052;BME280;3567;52.444;13.556;2023-04-28T05:28:37;101449.34;;;5.79;88.53
7052;BME280;3567;52.444;13.556;2023-04-28T05:31:03;101448.91;;;5.91;86.81
7052;BME280;3567;52.444;13.556;2023-04-28T05:33:28;101446.50;;;6.04;86.92
7052;BME280;3567;52.444;13.556;2023-04-28T05:35:54;101446.13;;;6.22;86.31
7052;BME280;3567;52.444;13.556;2023-04-28T05:38:19;101438.63;;;6.40;85.28
7052;BME280;3567;52.444;13.556;2023-04-28T05:40:45;101431.44;;;6.70;85.24
7052;BME280;3567;52.444;13.556;2023-04-28T05:43:10;101432.28;;;7.07;84.83
7052;BME280;3567;52.444;13.556;2023-04-28T05:45:35;101431.06;;;7.46;83.05
7052;BME280;3567;52.444;13.556;2023-04-28T05:48:01;101422.19;;;7.67;82.75
7052;BME280;3567;52.444;13.556;2023-04-28T05:50:26;101430.44;;;7.72;82.48
7052;BME280;3567;52.444;13.556;2023-04-28T05:52:52;101427.97;;;7.70;81.26
7052;BME280;3567;52.444;13.556;2023-04-28T05:55:17;101415.41;;;7.64;80.11
7052;BME280;3567;52.444;13.556;2023-04-28T05:57:43;101425.72;;;7.67;79.98
7052;BME280;3567;52.444;13.556;2023-04-28T06:00:08;101422.44;;;7.72;80.01
7052;BME280;3567;52.444;13.556;2023-04-28T06:02:34;101415.69;;;7.76;79.97
7052;BME280;3567;52.444;13.556;2023-04-28T06:05:00;101409.66;;;7.88;79.02
7052;BME280;3567;52.444;13.556;2023-04-28T06:07:25;101406.69;;;8.05;79.46
7052;BME280;3567;52.444;13.556;2023-04-28T06:09:51;101410.00;;;8.13;78.40
7052;BME280;3567;52.444;13.556;2023-04-28T06:12:16;101415.00;;;8.23;78.52
7052;BME280;3567;52.444;13.556;2023-04-28T06:14:41;101406.84;;;8.31;77.67
7052;BME280;3567;52.444;13.556;2023-04-28T06:17:07;101404.88;;;8.47;77.62
7052;BME280;3567;52.444;13.556;2023-04-28T06:19:32;101397.16;;;8.58;75.73
7052;BME280;3567;52.444;13.556;2023-04-28T06:21:58;101399.47;;;8.75;74.40
7052;BME280;3567;52.444;13.556;2023-04-28T06:24:23;101397.06;;;8.93;73.63
7052;BME280;3567;52.444;13.556;2023-04-28T06:26:49;101393.63;;;9.12;73.68
7052;BME280;3567;52.444;13.556;2023-04-28T06:29:14;101387.28;;;9.40;72.77
7052;BME280;3567;52.444;13.556;2023-04-28T06:31:39;101375.53;;;9.67;70.93
7052;BME280;3567;52.444;13.556;2023-04-28T06:34:05;101377.97;;;9.95;70.67
7052;BME280;3567;52.444;13.556;2023-04-28T06:36:30;101373.66;;;10.08;69.35
7052;BME280;3567;52.444;13.556;2023-04-28T06:38:57;101371.97;;;10.20;68.63
7052;BME280;3567;52.444;13.556;2023-04-28T06:41:22;101366.19;;;10.30;68.61
7052;BME280;3567;52.444;13.556;2023-04-28T06:43:48;101366.16;;;10.36;67.89
7052;BME280;3567;52.444;13.556;2023-04-28T06:46:15;101365.31;;;10.42;67.97
7052;BME280;3567;52.444;13.556;2023-04-28T06:48:40;101366.72;;;10.52;67.48
7052;BME280;3567;52.444;13.556;2023-04-28T06:51:05;101360.09;;;10.61;66.15
7052;BME280;3567;52.444;13.556;2023-04-28T06:53:31;101343.22;;;10.60;63.67
7052;BME280;3567;52.444;13.556;2023-04-28T06:55:56;101346.72;;;10.61;64.31
7052;BME280;3567;52.444;13.556;2023-04-28T06:58:22;101345.63;;;10.68;64.00
7052;BME280;3567;52.444;13.556;2023-04-28T07:00:47;101347.25;;;10.76;63.07
7052;BME280;3567;52.444;13.556;2023-04-28T07:03:13;101340.59;;;10.85;62.41
7052;BME280;3567;52.444;13.556;2023-04-28T07:05:38;101327.34;;;10.90;62.20
7052;BME280;3567;52.444;13.556;2023-04-28T07:08:04;101332.66;;;11.04;62.52
7052;BME280;3567;52.444;13.556;2023-04-28T07:10:30;101320.00;;;11.11;60.84
7052;BME280;3567;52.444;13.556;2023-04-28T07:12:55;101323.50;;;11.11;58.30
7052;BME280;3567;52.444;13.556;2023-04-28T07:15:21;101313.25;;;11.01;57.47
7052;BME280;3567;52.444;13.556;2023-04-28T07:17:48;101313.72;;;10.98;57.68
7052;BME280;3567;52.444;13.556;2023-04-28T07:20:13;101306.13;;;10.89;56.87
7052;BME280;3567;52.444;13.556;2023-04-28T07:22:39;101306.78;;;10.84;56.81
7052;BME280;3567;52.444;13.556;2023-04-28T07:25:04;101312.16;;;10.84;58.16
7052;BME280;3567;52.444;13.556;2023-04-28T07:27:30;101309.00;;;10.94;58.42
7052;BME280;3567;52.444;13.556;2023-04-28T07:29:56;101309.50;;;11.09;57.46
7052;BME280;3567;52.444;13.556;2023-04-28T07:32:21;101313.94;;;11.22;58.06
7052;BME280;3567;52.444;13.556;2023-04-28T07:34:48;101300.84;;;11.32;55.82
7052;BME280;3567;52.444;13.556;2023-04-28T07:37:13;101294.34;;;11.46;56.95
7052;BME280;3567;52.444;13.556;2023-04-28T07:39:39;101287.63;;;11.55;55.75
7052;BME280;3567;52.444;13.556;2023-04-28T07:42:05;101287.59;;;11.62;55.97
7052;BME280;3567;52.444;13.556;2023-04-28T07:44:31;101277.38;;;11.71;54.32
7052;BME280;3567;52.444;13.556;2023-04-28T07:46:58;101270.97;;;11.72;55.04
7052;BME280;3567;52.444;13.556;2023-04-28T07:49:23;101273.97;;;11.82;55.86
7052;BME280;3567;52.444;13.556;2023-04-28T07:51:49;101274.41;;;11.97;55.34
7052;BME280;3567;52.444;13.556;2023-04-28T07:54:17;101265.16;;;12.12;55.42
7052;BME280;3567;52.444;13.556;2023-04-28T07:56:43;101260.31;;;12.20;55.04
7052;BME280;3567;52.444;13.556;2023-04-28T07:59:08;101263.50;;;12.29;54.56
7052;BME280;3567;52.444;13.556;2023-04-28T08:01:34;101259.75;;;12.30;54.80
7052;BME280;3567;52.444;13.556;2023-04-28T08:03:59;101260.28;;;12.39;54.69
7052;BME280;3567;52.444;13.556;2023-04-28T08:06:25;101255.63;;;12.46;54.06
7052;BME280;3567;52.444;13.556;2023-04-28T08:08:50;101254.94;;;12.50;53.71
7052;BME280;3567;52.444;13.556;2023-04-28T08:11:16;101257.88;;;12.61;53.72
7052;BME280;3567;52.444;13.556;2023-04-28T08:13:41;101254.88;;;12.69;53.96
7052;BME280;3567;52.444;13.556;2023-04-28T08:16:07;101249.16;;;12.77;53.10
7052;BME280;3567;52.444;13.556;2023-04-28T08:18:32;101248.97;;;12.90;53.18
7052;BME280;3567;52.444;13.556;2023-04-28T08:20:58;101250.84;;;13.01;53.17
7052;BME280;3567;52.444;13.556;2023-04-28T08:23:23;101242.22;;;13.11;53.61
7052;BME280;3567;52.444;13.556;2023-04-28T08:25:52;101237.31;;;13.31;53.52
7052;BME280;3567;52.444;13.556;2023-04-28T08:28:17;101229.25;;;13.55;52.65
7052;BME280;3567;52.444;13.556;2023-04-28T08:30:43;101238.19;;;13.96;52.46
7052;BME280;3567;52.444;13.556;2023-04-28T08:33:08;101215.78;;;14.35;49.58
7052;BME280;3567;52.444;13.556;2023-04-28T08:35:34;101215.44;;;14.60;48.61
7052;BME280;3567;52.444;13.556;2023-04-28T08:37:59;101213.09;;;14.81;48.64
7052;BME280;3567;52.444;13.556;2023-04-28T08:40:40;101220.28;;;15.09;47.96
7052;BME280;3567;52.444;13.556;2023-04-28T08:43:07;101201.75;;;15.17;46.31
7052;BME280;3567;52.444;13.556;2023-04-28T08:45:39;101208.75;;;15.13;45.80
7052;BME280;3567;52.444;13.556;2023-04-28T08:48:10;101203.88;;;15.32;46.61
7052;BME280;3567;52.444;13.556;2023-04-28T08:50:38;101197.94;;;15.52;46.00
7052;BME280;3567;52.444;13.556;2023-04-28T08:53:07;101183.97;;;15.38;43.92
7052;BME280;3567;52.444;13.556;2023-04-28T08:55:34;101184.31;;;15.42;44.29
7052;BME280;3567;52.444;13.556;2023-04-28T08:58:01;101175.28;;;15.53;44.13
7052;BME280;3567;52.444;13.556;2023-04-28T09:00:27;101171.94;;;15.46;43.59
7052;BME280;3567;52.444;13.556;2023-04-28T09:02:52;101167.41;;;15.30;43.77
7052;BME280;3567;52.444;13.556;2023-04-28T09:05:18;101172.44;;;15.43;45.15
7052;BME280;3567;52.444;13.556;2023-04-28T09:07:46;101162.97;;;15.40;44.11
7052;BME280;3567;52.444;13.556;2023-04-28T09:10:21;101164.84;;;15.40;44.23
7052;BME280;3567;52.444;13.556;2023-04-28T09:12:50;101159.81;;;15.49;43.54
7052;BME280;3567;52.444;13.556;2023-04-28T09:15:34;101157.94;;;15.66;43.60
7052;BME280;3567;52.444;13.556;2023-04-28T09:18:01;101151.81;;;15.76;43.55
7052;BME280;3567;52.444;13.556;2023-04-28T09:20:28;101147.47;;;15.75;43.89
7052;BME280;3567;52.444;13.556;2023-04-28T09:22:56;101138.75;;;15.67;44.16
7052;BME280;3567;52.444;13.556;2023-04-28T09:25:36;101139.31;;;15.69;43.68
7052;BME280;3567;52.444;13.556;2023-04-28T09:28:18;101136.81;;;15.63;42.83
7052;BME280;3567;52.444;13.556;2023-04-28T09:30:44;101139.16;;;15.59;43.04
7052;BME280;3567;52.444;13.556;2023-04-28T09:33:09;101131.38;;;15.41;43.28
7052;BME280;3567;52.444;13.556;2023-04-28T09:35:41;101129.97;;;15.60;43.32
7052;BME280;3567;52.444;13.556;2023-04-28T09:38:09;101121.75;;;15.94;43.42
7052;BME280;3567;52.444;13.556;2023-04-28T09:43:35;101109.66;;;16.02;41.21
7052;BME280;3567;52.444;13.556;2023-04-28T09:46:04;101110.75;;;16.01;42.04
7052;BME280;3567;52.444;13.556;2023-04-28T09:48:34;101107.78;;;16.02;42.65
7052;BME280;3567;52.444;13.556;2023-04-28T09:51:02;101104.72;;;16.20;42.90
7052;BME280;3567;52.444;13.556;2023-04-28T09:53:28;101109.63;;;16.29;42.62
7052;BME280;3567;52.444;13.556;2023-04-28T09:55:55;101103.19;;;16.35;41.78
7052;BME280;3567;52.444;13.556;2023-04-28T09:58:23;101091.66;;;16.44;41.63
7052;BME280;3567;52.444;13.556;2023-04-28T10:00:57;101098.50;;;16.52;41.67
7052;BME280;3567;52.444;13.556;2023-04-28T10:03:25;101102.81;;;16.53;41.55
7052;BME280;3567;52.444;13.556;2023-04-28T10:05:51;101095.50;;;16.54;42.76
7052;BME280;3567;52.444;13.556;2023-04-28T10:08:21;101088.41;;;16.74;41.50
7052;BME280;3567;52.444;13.556;2023-04-28T10:10:51;101089.53;;;16.84;39.85
7052;BME280;3567;52.444;13.556;2023-04-28T10:13:21;101075.41;;;16.76;40.17
7052;BME280;3567;52.444;13.556;2023-04-28T10:15:48;101074.16;;;16.89;40.65
7052;BME280;3567;52.444;13.556;2023-04-28T10:18:15;101072.88;;;17.07;41.02
7052;BME280;3567;52.444;13.556;2023-04-28T10:20:56;101067.25;;;17.19;40.93
7052;BME280;3567;52.444;13.556;2023-04-28T10:26:13;101054.34;;;17.46;39.78
7052;BME280;3567;52.444;13.556;2023-04-28T10:28:50;101060.03;;;17.45;38.93
7052;BME280;3567;52.444;13.556;2023-04-28T10:31:18;101055.38;;;17.35;39.07
7052;BME280;3567;52.444;13.556;2023-04-28T10:33:47;101052.13;;;17.33;38.60
7052;BME280;3567;52.444;13.556;2023-04-28T10:36:51;101050.53;;;17.32;39.31
7052;BME280;3567;52.444;13.556;2023-04-28T10:39:19;101047.28;;;17.40;40.40
7052;BME280;3567;52.444;13.556;2023-04-28T10:41:45;101044.34;;;17.57;39.66
7052;BME280;3567;52.444;13.556;2023-04-28T10:47:06;101030.88;;;17.83;39.16
7052;BME280;3567;52.444;13.556;2023-04-28T10:55:30;101024.38;;;18.29;37.96
7052;BME280;3567;52.444;13.556;2023-04-28T11:00:44;101014.34;;;18.15;38.25
7052;BME280;3567;52.444;13.556;2023-04-28T11:06:31;101015.72;;;18.02;38.70
7052;BME280;3567;52.444;13.556;2023-04-28T11:11:26;101023.75;;;18.63;38.75
7052;BME280;3567;52.444;13.556;2023-04-28T11:13:54;101016.16;;;18.80;38.02
7052;BME280;3567;52.444;13.556;2023-04-28T11:16:22;101006.94;;;18.66;37.85
7052;BME280;3567;52.444;13.556;2023-04-28T11:19:08;100999.38;;;18.48;37.82
7052;BME280;3567;52.444;13.556;2023-04-28T11:21:38;101004.28;;;18.36;38.07
7052;BME280;3567;52.444;13.556;2023-04-28T11:24:08;101001.88;;;18.03;37.91
7052;BME280;3567;52.444;13.556;2023-04-28T11:26:36;101010.81;;;17.84;38.96
7052;BME280;3567;52.444;13.556;2023-04-28T11:29:01;101011.31;;;17.70;39.33
7052;BME280;3567;52.444;13.556;2023-04-28T11:31:27;101009.72;;;17.69;38.85
7052;BME280;3567;52.444;13.556;2023-04-28T11:33:56;101002.69;;;17.78;39.26
7052;BME280;3567;52.444;13.556;2023-04-28T11:36:49;101005.97;;;17.86;38.71
7052;BME280;3567;52.444;13.556;2023-04-28T11:39:14;101008.66;;;17.75;39.61
7052;BME280;3567;52.444;13.556;2023-04-28T11:41:43;101006.47;;;17.72;39.26
7052;BME280;3567;52.444;13.556;2023-04-28T11:44:14;101007.56;;;17.76;39.69
7052;BME280;3567;52.444;13.556;2023-04-28T11:47:01;101013.53;;;17.78;40.04
7052;BME280;3567;52.444;13.556;2023-04-28T11:51:55;101006.75;;;17.81;40.54
7052;BME280;3567;52.444;13.556;2023-04-28T11:54:23;101002.16;;;17.92;41.27
7052;BME280;3567;52.444;13.556;2023-04-28T11:56:50;100992.41;;;17.91;40.52
7052;BME280;3567;52.444;13.556;2023-04-28T11:59:16;100990.22;;;17.83;40.07
7052;BME280;3567;52.444;13.556;2023-04-28T12:01:52;100996.19;;;17.74;40.49
7052;BME280;3567;52.444;13.556;2023-04-28T12:07:09;100991.59;;;17.85;40.47
7052;BME280;3567;52.444;13.556;2023-04-28T12:09:36;100991.84;;;17.99;40.76
7052;BME280;3567;52.444;13.556;2023-04-28T12:12:07;100980.47;;;18.07;41.09
7052;BME280;3567;52.444;13.556;2023-04-28T12:14:59;100979.91;;;18.15;39.29
7052;BME280;3567;52.444;13.556;2023-04-28T12:17:34;100967.94;;;18.42;39.95
7052;BME280;3567;52.444;13.556;2023-04-28T12:20:02;100980.09;;;18.59;39.37
7052;BME280;3567;52.444;13.556;2023-04-28T12:22:28;100965.69;;;18.64;38.63
7052;BME280;3567;52.444;13.556;2023-04-28T12:25:11;100965.66;;;18.84;38.51
7052;BME280;3567;52.444;13.556;2023-04-28T12:27:38;100964.47;;;19.06;38.24
7052;BME280;3567;52.444;13.556;2023-04-28T12:30:25;100947.84;;;19.18;38.07
7052;BME280;3567;52.444;13.556;2023-04-28T12:32:51;100953.44;;;19.31;37.95
7052;BME280;3567;52.444;13.556;2023-04-28T12:35:20;100950.09;;;19.50;38.41
7052;BME280;3567;52.444;13.556;2023-04-28T12:37:46;100943.47;;;19.66;37.47
7052;BME280;3567;52.444;13.556;2023-04-28T12:40:11;100948.94;;;19.56;38.05
7052;BME280;3567;52.444;13.556;2023-04-28T12:42:38;100941.22;;;19.34;37.37
7052;BME280;3567;52.444;13.556;2023-04-28T12:45:05;100942.59;;;19.31;38.00
7052;BME280;3567;52.444;13.556;2023-04-28T12:47:30;100934.56;;;19.11;36.74
7052;BME280;3567;52.444;13.556;2023-04-28T12:49:56;100945.81;;;18.89;37.85
7052;BME280;3567;52.444;13.556;2023-04-28T12:52:21;100936.63;;;18.80;38.95
7052;BME280;3567;52.444;13.556;2023-04-28T12:54:47;100939.13;;;18.71;38.86
7052;BME280;3567;52.444;13.556;2023-04-28T12:57:14;100931.50;;;18.63;38.56
7052;BME280;3567;52.444;13.556;2023-04-28T12:59:39;100929.97;;;18.37;38.59
7052;BME280;3567;52.444;13.556;2023-04-28T13:02:05;100930.84;;;18.22;39.30
7052;BME280;3567;52.444;13.556;2023-04-28T13:04:30;100928.41;;;18.10;39.80
7052;BME280;3567;52.444;13.556;2023-04-28T13:06:56;100934.38;;;18.12;39.68
7052;BME280;3567;52.444;13.556;2023-04-28T13:09:23;100927.34;;;18.06;39.41
7052;BME280;3567;52.444;13.556;2023-04-28T13:11:49;100938.72;;;18.03;39.78
7052;BME280;3567;52.444;13.556;2023-04-28T13:14:15;100928.97;;;18.02;40.30
7052;BME280;3567;52.444;13.556;2023-04-28T13:16:40;100933.59;;;18.06;40.46
7052;BME280;3567;52.444;13.556;2023-04-28T13:19:06;100924.34;;;18.13;40.87
7052;BME280;3567;52.444;13.556;2023-04-28T13:21:35;100916.50;;;18.11;39.91
7052;BME280;3567;52.444;13.556;2023-04-28T13:24:01;100921.94;;;18.06;40.04
7052;BME280;3567;52.444;13.556;2023-04-28T13:26:27;100916.50;;;18.06;39.88
7052;BME280;3567;52.444;13.556;2023-04-28T13:28:54;100921.66;;;18.02;40.49